Time;durP1;ratioP1;P1;durP2;ratioP2;P2;SDS_P1;SDS_P2;PMS_P1;PMS_P2;Temp;Humidity;BMP_temperature;BMP_pressure;BME280_temperature;BME280_humidity;BME280_pressure;Samples;Min_cycle;Max_cycle;Signal;HPM_P1;HPM_P2
2021/04/18 00:01:38;;;;;;;45.85;30.20;;;5.00;95.10;;;;;;5094744;28;20508;-79
2021/04/18 00:04:05;;;;;;;47.70;31.02;;;5.00;95.20;;;;;;5114699;28;20040;-79
2021/04/18 00:06:37;;;;;;;39.95;27.27;;;5.00;95.30;;;;;;5096290;28;20039;-79
2021/04/18 00:09:08;;;;;;;43.55;28.63;;;5.00;95.10;;;;;;5114333;28;20027;-78
2021/04/18 00:11:34;;;;;;;44.40;28.33;;;5.00;95.20;;;;;;5096520;28;20397;-79
2021/04/18 00:13:59;;;;;;;42.13;27.90;;;5.00;95.20;;;;;;5114541;28;20020;-79
2021/04/18 00:16:25;;;;;;;41.30;26.42;;;5.00;95.20;;;;;;5098519;28;20154;-79
2021/04/18 00:18:51;;;;;;;43.75;27.80;;;5.00;95.10;;;;;;5094690;28;20028;-79
2021/04/18 00:21:17;;;;;;;41.78;27.10;;;5.00;95.20;;;;;;5094570;28;20397;-79
2021/04/18 00:23:43;;;;;;;41.53;28.52;;;5.00;95.20;;;;;;5094133;28;20162;-79
2021/04/18 00:26:09;;;;;;;43.85;28.25;;;5.10;95.20;;;;;;5075809;28;20107;-78
2021/04/18 00:28:34;;;;;;;45.25;28.73;;;5.10;95.20;;;;;;5076743;28;20123;-78
2021/04/18 00:31:00;;;;;;;43.63;28.77;;;5.10;95.20;;;;;;5104460;28;20036;-78
2021/04/18 00:33:26;;;;;;;46.35;28.67;;;5.10;95.20;;;;;;5096018;28;20028;-79
2021/04/18 00:35:52;;;;;;;47.75;30.48;;;5.20;95.10;;;;;;5095859;28;20056;-79
2021/04/18 00:38:18;;;;;;;47.22;29.52;;;5.20;95.10;;;;;;5096017;28;20039;-79
2021/04/18 00:40:43;;;;;;;43.42;28.05;;;5.20;95.10;;;;;;5095942;28;20039;-79
2021/04/18 00:43:09;;;;;;;40.53;26.63;;;5.20;94.90;;;;;;5114359;28;20385;-79
2021/04/18 00:45:35;;;;;;;37.40;24.40;;;5.30;94.60;;;;;;5096713;28;20085;-79
2021/04/18 00:48:02;;;;;;;42.95;25.95;;;5.40;94.50;;;;;;5075104;28;20040;-79
2021/04/18 00:50:30;;;;;;;44.67;29.20;;;5.40;94.40;;;;;;5093794;28;20108;-79
2021/04/18 00:52:57;;;;;;;40.00;27.52;;;5.40;94.70;;;;;;5093599;28;20032;-79
2021/04/18 00:55:27;;;;;;;46.97;28.17;;;5.40;94.70;;;;;;5074783;28;20064;-79
2021/04/18 00:57:55;;;;;;;40.40;26.73;;;5.40;94.70;;;;;;5073769;28;20041;-79
2021/04/18 01:00:21;;;;;;;43.22;28.23;;;5.40;94.80;;;;;;5055415;28;20043;-79
2021/04/18 01:02:47;;;;;;;45.05;28.70;;;5.40;94.70;;;;;;5055393;28;20056;-79
2021/04/18 01:05:13;;;;;;;39.65;25.90;;;5.40;94.90;;;;;;5073461;28;20415;-77
2021/04/18 01:07:39;;;;;;;36.50;24.88;;;5.40;94.80;;;;;;5055449;28;20041;-77
2021/04/18 01:10:07;;;;;;;36.92;23.73;;;5.50;94.70;;;;;;5104223;28;20035;-77
2021/04/18 01:12:33;;;;;;;32.97;23.75;;;5.50;94.60;;;;;;5114168;28;20080;-77
2021/04/18 01:14:59;;;;;;;31.45;22.02;;;5.60;94.40;;;;;;5114230;28;20493;-77
2021/04/18 01:17:25;;;;;;;39.15;25.35;;;5.60;94.40;;;;;;5095708;28;20024;-77
2021/04/18 01:19:51;;;;;;;37.53;24.40;;;5.60;94.50;;;;;;5095614;28;20054;-77
2021/04/18 01:22:16;;;;;;;36.88;24.55;;;5.60;94.50;;;;;;5095884;28;20032;-77
2021/04/18 01:24:42;;;;;;;33.03;23.30;;;5.60;94.50;;;;;;5103795;28;20430;-77
2021/04/18 01:27:10;;;;;;;32.47;22.63;;;5.70;94.50;;;;;;5075217;28;20113;-77
2021/04/18 01:29:36;;;;;;;30.73;21.80;;;5.70;94.40;;;;;;5093700;28;20020;-77
2021/04/18 01:32:03;;;;;;;34.33;22.40;;;5.70;94.40;;;;;;5075217;28;20047;-77
2021/04/18 01:34:29;;;;;;;29.52;20.70;;;5.70;94.50;;;;;;5075263;28;20024;-77
2021/04/18 01:36:55;;;;;;;31.25;21.38;;;5.80;94.40;;;;;;5104868;28;20051;-77
2021/04/18 01:39:21;;;;;;;27.30;20.38;;;5.80;94.20;;;;;;5095253;28;20089;-77
2021/04/18 01:41:46;;;;;;;31.63;22.30;;;5.80;94.10;;;;;;5096099;28;20118;-77
2021/04/18 01:44:12;;;;;;;26.95;19.45;;;5.90;94.20;;;;;;5095416;28;20036;-77
2021/04/18 01:46:47;;;;;;;28.73;20.08;;;5.90;94.20;;;;;;5095199;28;20516;-77
2021/04/18 01:49:13;;;;;;;29.40;21.13;;;5.80;94.20;;;;;;5095306;28;20036;-77
2021/04/18 01:51:39;;;;;;;29.83;20.60;;;5.90;94.40;;;;;;5095148;28;20198;-77
2021/04/18 01:54:06;;;;;;;27.13;19.50;;;5.90;94.20;;;;;;5113148;28;20024;-77
2021/04/18 01:56:32;;;;;;;32.28;21.88;;;6.00;94.10;;;;;;5113133;28;20019;-77
2021/04/18 01:58:58;;;;;;;29.30;20.67;;;5.90;94.10;;;;;;5095090;28;20385;-77
2021/04/18 02:01:23;;;;;;;32.50;23.58;;;5.90;94.20;;;;;;5116603;28;20027;-77
2021/04/18 02:03:49;;;;;;;32.38;21.85;;;5.90;94.20;;;;;;5098799;28;20035;-77
2021/04/18 02:06:18;;;;;;;30.65;21.20;;;5.90;94.30;;;;;;5098758;28;20047;-77
2021/04/18 02:08:43;;;;;;;30.15;21.80;;;5.90;94.30;;;;;;5098610;28;20031;-77
2021/04/18 02:11:09;;;;;;;32.70;21.90;;;5.90;94.30;;;;;;5116670;28;20036;-77
2021/04/18 02:13:35;;;;;;;32.72;21.85;;;5.90;94.30;;;;;;5099282;28;20024;-77
2021/04/18 02:16:00;;;;;;;32.63;23.65;;;5.90;94.40;;;;;;5117083;28;20098;-77
2021/04/18 02:18:26;;;;;;;34.10;22.98;;;5.80;94.60;;;;;;5098501;28;20770;-77
2021/04/18 02:20:52;;;;;;;30.25;22.08;;;5.80;94.70;;;;;;5098459;28;20028;-77
2021/04/18 02:23:18;;;;;;;33.30;22.17;;;5.70;94.70;;;;;;5116753;28;20035;-77
2021/04/18 02:25:44;;;;;;;30.73;21.85;;;5.70;94.80;;;;;;5097916;28;20050;-77
2021/04/18 02:28:10;;;;;;;29.70;21.73;;;5.70;94.80;;;;;;5098710;28;20081;-77
2021/04/18 02:30:36;;;;;;;28.65;20.15;;;5.70;94.80;;;;;;5116620;28;20114;-77
2021/04/18 02:33:02;;;;;;;25.17;19.38;;;5.60;94.60;;;;;;5096960;28;20118;-76
2021/04/18 02:35:28;;;;;;;29.35;20.73;;;5.70;94.50;;;;;;5097685;28;20127;-76
2021/04/18 02:37:53;;;;;;;35.22;23.80;;;5.60;94.60;;;;;;5115796;28;20390;-76
2021/04/18 02:40:19;;;;;;;38.00;25.70;;;5.60;94.60;;;;;;5097700;28;20541;-76
2021/04/18 02:42:45;;;;;;;35.53;23.02;;;5.50;94.60;;;;;;5116257;28;20066;-78
2021/04/18 02:45:13;;;;;;;36.13;22.98;;;5.50;94.40;;;;;;5098452;28;20127;-78
2021/04/18 02:47:39;;;;;;;34.83;22.70;;;5.50;94.40;;;;;;5116124;28;20040;-78
2021/04/18 02:50:07;;;;;;;35.60;23.83;;;5.60;94.20;;;;;;5105608;28;20040;-79
2021/04/18 02:52:32;;;;;;;29.67;21.02;;;5.60;94.10;;;;;;5076896;28;20063;-79
2021/04/18 02:54:58;;;;;;;40.47;24.27;;;5.60;94.20;;;;;;5095687;28;20054;-79
2021/04/18 02:57:24;;;;;;;32.83;22.98;;;5.50;94.40;;;;;;5095476;28;20032;-79
2021/04/18 02:59:50;;;;;;;37.47;25.40;;;5.50;94.50;;;;;;5095482;28;20048;-77
2021/04/18 03:02:16;;;;;;;30.38;20.83;;;5.50;94.60;;;;;;5077380;28;20499;-78
2021/04/18 03:04:41;;;;;;;29.25;21.00;;;5.50;94.40;;;;;;5077304;28;20485;-78
2021/04/18 03:07:07;;;;;;;30.15;20.63;;;5.50;94.60;;;;;;5087539;28;20473;-78
2021/04/18 03:09:32;;;;;;;35.75;23.70;;;5.60;94.40;;;;;;5097456;28;20039;-78
2021/04/18 03:11:58;;;;;;;30.67;21.10;;;5.60;94.40;;;;;;5114735;28;20439;-78
2021/04/18 03:14:24;;;;;;;30.55;21.75;;;5.60;94.40;;;;;;5097351;28;20028;-79
2021/04/18 03:16:50;;;;;;;28.33;19.70;;;5.60;94.40;;;;;;5097198;28;20125;-78
2021/04/18 03:19:15;;;;;;;32.33;21.38;;;5.70;94.30;;;;;;5115657;28;20028;-78
2021/04/18 03:21:41;;;;;;;29.10;19.27;;;5.70;94.20;;;;;;5097301;28;20032;-79
2021/04/18 03:24:07;;;;;;;35.88;23.27;;;5.70;94.20;;;;;;5097047;28;20027;-78
2021/04/18 03:26:33;;;;;;;33.67;23.88;;;5.70;94.40;;;;;;5113764;28;20063;-78
2021/04/18 03:28:59;;;;;;;32.00;22.15;;;5.70;94.50;;;;;;5097070;28;20171;-78
2021/04/18 03:31:24;;;;;;;28.20;20.33;;;5.70;94.50;;;;;;5096996;28;20036;-78
2021/04/18 03:33:50;;;;;;;29.35;19.95;;;5.70;94.40;;;;;;5097139;28;20055;-78
2021/04/18 03:36:15;;;;;;;27.13;20.17;;;5.80;94.20;;;;;;5084608;28;20557;-78
2021/04/18 03:38:41;;;;;;;29.80;20.40;;;5.80;94.10;;;;;;5096879;28;20031;-78
2021/04/18 03:41:07;;;;;;;27.08;19.42;;;5.90;94.00;;;;;;5096547;28;20034;-78
2021/04/18 03:43:33;;;;;;;28.95;21.52;;;5.90;94.10;;;;;;5114990;28;20024;-78
2021/04/18 03:45:58;;;;;;;30.33;21.13;;;6.00;93.90;;;;;;5096408;28;20040;-78
2021/04/18 03:48:25;;;;;;;33.58;21.02;;;6.00;93.90;;;;;;5096149;28;20031;-78
2021/04/18 03:50:51;;;;;;;26.25;19.48;;;6.00;94.20;;;;;;5096508;28;20042;-78
2021/04/18 03:53:17;;;;;;;27.10;20.25;;;6.00;94.10;;;;;;5114758;28;20110;-78
2021/04/18 03:55:43;;;;;;;25.65;19.23;;;6.00;94.00;;;;;;5096180;28;20272;-79
2021/04/18 03:58:09;;;;;;;28.88;20.95;;;6.10;94.20;;;;;;5096440;28;20031;-78
2021/04/18 04:00:34;;;;;;;28.17;19.55;;;6.10;94.00;;;;;;5114404;28;20031;-78
2021/04/18 04:03:00;;;;;;;33.60;23.17;;;6.20;93.90;;;;;;5096528;28;20040;-79
2021/04/18 04:05:26;;;;;;;25.83;19.20;;;6.20;94.00;;;;;;5095979;28;20477;-79
2021/04/18 04:07:52;;;;;;;26.50;19.63;;;6.30;93.90;;;;;;5096384;28;20085;-79
2021/04/18 04:10:17;;;;;;;29.40;20.30;;;6.40;93.80;;;;;;5096346;28;20028;-78
2021/04/18 04:12:43;;;;;;;27.00;20.13;;;6.40;93.70;;;;;;5096719;28;20481;-79
2021/04/18 04:15:09;;;;;;;27.23;20.17;;;6.50;93.70;;;;;;5096509;28;20416;-79
2021/04/18 04:17:35;;;;;;;28.77;20.77;;;6.50;93.70;;;;;;5113715;28;20019;-78
2021/04/18 04:20:01;;;;;;;26.58;19.05;;;6.60;93.80;;;;;;5096120;28;20164;-79
2021/04/18 04:22:26;;;;;;;27.98;19.75;;;6.60;94.00;;;;;;5096051;28;20039;-79
2021/04/18 04:24:53;;;;;;;28.95;20.77;;;6.70;93.70;;;;;;5096116;28;20034;-79
2021/04/18 04:27:19;;;;;;;27.30;20.10;;;6.80;93.60;;;;;;5095893;28;20028;-79
2021/04/18 04:29:47;;;;;;;31.80;20.92;;;6.80;93.40;;;;;;5114232;28;20036;-79
2021/04/18 04:32:12;;;;;;;28.27;21.25;;;6.80;93.30;;;;;;5113885;28;20104;-78
2021/04/18 04:34:39;;;;;;;25.27;18.70;;;6.80;93.50;;;;;;5114228;28;20473;-78
2021/04/18 04:37:04;;;;;;;25.23;19.42;;;6.80;93.40;;;;;;5114033;28;20035;-79
2021/04/18 04:39:30;;;;;;;27.02;19.27;;;6.80;93.40;;;;;;5114392;28;20087;-79
2021/04/18 04:41:56;;;;;;;29.95;21.27;;;6.80;93.50;;;;;;5112085;28;20111;-79
2021/04/18 04:44:22;;;;;;;26.98;18.92;;;6.70;93.70;;;;;;5096074;28;20548;-79
2021/04/18 04:46:47;;;;;;;24.05;17.95;;;6.70;93.90;;;;;;5105099;28;20036;-79
2021/04/18 04:49:14;;;;;;;24.45;18.75;;;6.80;93.90;;;;;;5093788;28;20071;-78
2021/04/18 04:51:39;;;;;;;29.48;19.10;;;6.80;93.90;;;;;;5075581;28;20111;-79
2021/04/18 04:54:05;;;;;;;23.48;18.10;;;6.90;93.90;;;;;;5077691;28;20028;-79
2021/04/18 04:56:31;;;;;;;28.17;20.30;;;7.00;93.90;;;;;;5113767;28;20046;-78
2021/04/18 04:58:57;;;;;;;26.58;19.90;;;7.10;94.20;;;;;;5095503;28;20111;-78
2021/04/18 05:01:23;;;;;;;25.55;18.80;;;7.10;94.00;;;;;;5114060;28;20114;-79
2021/04/18 05:03:49;;;;;;;27.13;19.75;;;7.30;93.90;;;;;;5095751;28;20024;-78
2021/04/18 05:06:15;;;;;;;28.50;20.20;;;7.40;93.80;;;;;;5093993;28;20046;-79
2021/04/18 05:08:41;;;;;;;27.95;20.80;;;7.50;93.70;;;;;;5095634;28;20115;-79
2021/04/18 05:11:07;;;;;;;26.92;18.92;;;7.60;93.80;;;;;;5077634;28;20450;-79
2021/04/18 05:13:32;;;;;;;26.65;19.75;;;7.70;93.60;;;;;;5075742;28;20482;-79
2021/04/18 05:15:58;;;;;;;26.52;19.60;;;7.80;93.50;;;;;;5087517;28;20040;-79
2021/04/18 05:18:24;;;;;;;26.05;19.88;;;7.90;93.50;;;;;;5095693;28;20070;-79
2021/04/18 05:20:50;;;;;;;25.70;18.98;;;8.00;93.30;;;;;;5113868;28;20024;-79
2021/04/18 05:23:15;;;;;;;25.95;19.27;;;8.10;93.20;;;;;;5095484;28;20032;-79
2021/04/18 05:25:41;;;;;;;27.45;19.88;;;8.20;93.10;;;;;;5093913;28;20069;-79
2021/04/18 05:28:07;;;;;;;33.45;23.85;;;8.30;93.00;;;;;;5095012;28;20039;-79
2021/04/18 05:30:33;;;;;;;34.22;24.02;;;8.30;93.10;;;;;;5093908;28;20047;-79
2021/04/18 05:32:59;;;;;;;33.05;21.83;;;8.50;92.90;;;;;;5113637;28;20061;-79
2021/04/18 05:35:24;;;;;;;27.52;20.88;;;8.60;93.00;;;;;;5115792;28;20427;-78
2021/04/18 05:37:50;;;;;;;27.80;21.30;;;8.70;92.40;;;;;;5099152;28;20043;-79
2021/04/18 05:40:16;;;;;;;28.15;20.38;;;8.70;92.30;;;;;;5097934;28;20035;-78
2021/04/18 05:42:42;;;;;;;27.25;19.08;;;8.70;92.50;;;;;;5098821;28;20400;-78
2021/04/18 05:45:08;;;;;;;29.35;20.52;;;8.70;92.60;;;;;;5097782;28;20477;-78
2021/04/18 05:47:34;;;;;;;29.55;21.63;;;8.80;92.40;;;;;;5078652;28;20048;-78
2021/04/18 05:50:01;;;;;;;29.58;20.27;;;8.90;92.20;;;;;;5096968;28;20035;-78
2021/04/18 05:52:26;;;;;;;27.17;19.00;;;8.90;92.30;;;;;;5096854;28;20107;-78
2021/04/18 05:54:53;;;;;;;29.02;19.88;;;9.00;92.40;;;;;;5093124;28;20126;-79
2021/04/18 05:57:19;;;;;;;28.00;19.73;;;9.00;92.60;;;;;;5117584;28;20020;-79
2021/04/18 05:59:45;;;;;;;29.73;21.52;;;9.10;92.70;;;;;;5105619;28;20521;-79
2021/04/18 06:02:11;;;;;;;26.70;17.13;;;9.30;92.70;;;;;;5078497;28;20071;-79
2021/04/18 06:04:36;;;;;;;26.80;19.73;;;9.50;92.70;;;;;;5096692;28;20491;-79
2021/04/18 06:07:03;;;;;;;30.02;18.08;;;9.70;92.50;;;;;;5096464;28;20032;-78
2021/04/18 06:09:30;;;;;;;24.45;18.38;;;10.00;92.40;;;;;;5096469;28;20032;-77
2021/04/18 06:11:55;;;;;;;26.15;18.60;;;10.30;91.90;;;;;;5099940;28;20354;-76
2021/04/18 06:14:21;;;;;;;28.92;20.10;;;10.60;91.70;;;;;;5117857;28;20039;-77
2021/04/18 06:16:48;;;;;;;27.27;18.80;;;10.90;91.30;;;;;;5098523;28;20038;-78
2021/04/18 06:19:15;;;;;;;29.73;18.13;;;11.00;90.90;;;;;;5116606;28;20020;-79
2021/04/18 06:21:42;;;;;;;30.13;19.20;;;11.20;90.60;;;;;;5098261;28;20118;-78
2021/04/18 06:24:08;;;;;;;29.75;20.20;;;11.40;90.30;;;;;;5116418;28;20157;-77
2021/04/18 06:26:34;;;;;;;26.55;19.23;;;11.30;90.40;;;;;;5116637;28;20043;-79
2021/04/18 06:28:59;;;;;;;24.67;17.42;;;11.40;90.00;;;;;;5116435;28;20031;-78
2021/04/18 06:31:25;;;;;;;28.13;18.40;;;11.30;89.50;;;;;;5116380;28;20028;-77
2021/04/18 06:33:51;;;;;;;25.60;18.67;;;11.10;88.80;;;;;;5098183;28;20036;-79
2021/04/18 06:36:17;;;;;;;26.30;18.25;;;10.90;89.00;;;;;;5116257;28;20040;-78
2021/04/18 06:38:42;;;;;;;25.05;18.08;;;10.70;89.20;;;;;;5098015;28;20111;-79
2021/04/18 06:41:14;;;;;;;26.98;16.63;;;10.50;90.10;;;;;;5116299;28;20028;-79
2021/04/18 06:43:43;;;;;;;29.40;22.30;;;10.40;90.50;;;;;;5116172;28;20055;-78
2021/04/18 06:46:14;;;;;;;29.13;20.23;;;10.40;90.70;;;;;;5116218;28;20054;-78
2021/04/18 06:48:40;;;;;;;29.60;19.30;;;10.50;90.50;;;;;;5116486;28;20462;-78
2021/04/18 06:51:06;;;;;;;26.98;19.10;;;10.60;90.20;;;;;;5104979;28;20032;-78
2021/04/18 06:53:31;;;;;;;24.10;18.30;;;10.60;90.20;;;;;;5095131;28;20040;-77
2021/04/18 06:56:01;;;;;;;91.15;31.63;;;10.60;90.20;;;;;;5077584;28;20035;-78
2021/04/18 06:58:27;;;;;;;34.88;19.48;;;10.60;90.40;;;;;;5077230;28;20170;-78
2021/04/18 07:00:52;;;;;;;30.35;18.60;;;10.80;90.40;;;;;;5102118;28;20055;-81
2021/04/18 07:03:22;;;;;;;29.08;16.63;;;10.90;90.30;;;;;;5115571;28;20027;-78
2021/04/18 07:05:50;;;;;;;26.67;15.43;;;11.10;90.30;;;;;;5097383;28;20501;-78
2021/04/18 07:08:31;;;;;;;21.65;15.75;;;11.40;89.60;;;;;;5116147;28;20032;-77
2021/04/18 07:11:26;;;;;;;21.83;15.65;;;11.60;88.20;;;;;;5115803;28;20035;-78
2021/04/18 07:13:52;;;;;;;23.58;15.82;;;11.70;85.90;;;;;;5088530;28;20031;-79
2021/04/18 07:16:26;;;;;;;23.27;16.23;;;11.80;85.90;;;;;;5115618;28;20076;-81
2021/04/18 07:18:52;;;;;;;19.70;14.27;;;11.70;85.70;;;;;;5097358;28;20027;-79
2021/04/18 07:21:18;;;;;;;20.42;14.88;;;11.70;85.70;;;;;;5097391;28;20381;-79
2021/04/18 07:23:44;;;;;;;21.83;15.27;;;11.60;85.00;;;;;;5115512;28;20077;-79
2021/04/18 07:26:25;;;;;;;22.13;14.70;;;11.60;85.80;;;;;;5115572;28;20056;-79
2021/04/18 07:29:09;;;;;;;22.00;15.27;;;11.70;86.40;;;;;;5115622;28;20028;-80
2021/04/18 07:31:35;;;;;;;23.55;16.75;;;11.90;86.40;;;;;;5114902;28;20027;-80
2021/04/18 07:34:04;;;;;;;23.75;16.58;;;12.10;84.90;;;;;;5096962;28;20470;-80
2021/04/18 07:36:31;;;;;;;20.33;15.60;;;12.20;84.10;;;;;;5115027;28;20079;-79
2021/04/18 07:38:57;;;;;;;21.67;15.07;;;12.20;84.50;;;;;;5114935;28;20766;-80
2021/04/18 07:41:24;;;;;;;20.75;15.15;;;12.30;84.60;;;;;;5096926;28;20040;-80
2021/04/18 07:43:51;;;;;;;22.45;14.90;;;12.40;84.20;;;;;;5096966;28;20115;-83
2021/04/18 07:46:18;;;;;;;19.23;13.88;;;12.60;82.80;;;;;;5097064;28;20362;-84
2021/04/18 07:48:44;;;;;;;19.73;14.40;;;12.70;83.60;;;;;;5096320;28;20146;-83
2021/04/18 07:51:10;;;;;;;19.05;14.13;;;12.80;82.90;;;;;;5096406;28;20032;-83
2021/04/18 07:53:37;;;;;;;21.77;14.93;;;12.90;82.00;;;;;;5114755;28;20043;-81
2021/04/18 07:56:11;;;;;;;20.52;14.90;;;13.00;81.70;;;;;;5114805;28;20028;-82
2021/04/18 07:58:41;;;;;;;18.75;14.75;;;12.90;82.80;;;;;;5095811;28;20035;-81
2021/04/18 08:01:08;;;;;;;16.63;12.65;;;12.90;81.30;;;;;;5096480;28;20427;-80
2021/04/18 08:03:35;;;;;;;18.27;13.02;;;12.90;80.60;;;;;;5096528;28;20035;-79
2021/04/18 08:06:03;;;;;;;19.60;14.25;;;12.90;79.80;;;;;;5096462;28;20438;-83
2021/04/18 08:08:46;;;;;;;19.88;14.10;;;12.60;80.80;;;;;;5096052;28;20066;-79
2021/04/18 08:11:14;;;;;;;21.63;15.60;;;12.60;81.30;;;;;;5114522;28;20019;-79
2021/04/18 08:13:43;;;;;;;20.60;14.30;;;12.40;81.80;;;;;;5096171;28;20056;-79
2021/04/18 08:16:09;;;;;;;23.75;16.17;;;12.20;82.60;;;;;;5096146;28;20032;-80
2021/04/18 08:18:41;;;;;;;22.17;14.25;;;12.20;83.90;;;;;;5096799;28;20028;-79
2021/04/18 08:21:43;;;;;;;19.50;13.50;;;12.50;83.00;;;;;;5096499;28;20075;-80
2021/04/18 08:24:17;;;;;;;18.80;12.95;;;12.70;82.10;;;;;;5077992;28;20068;-80
2021/04/18 08:27:06;;;;;;;21.17;14.75;;;12.70;80.70;;;;;;5093872;28;20036;-79
2021/04/18 08:29:32;;;;;;;18.33;13.02;;;12.70;80.20;;;;;;5075702;28;20504;-79
2021/04/18 08:32:08;;;;;;;16.50;11.65;;;12.60;80.00;;;;;;5080226;28;20034;-83
2021/04/18 08:34:44;;;;;;;18.63;12.63;;;12.50;80.50;;;;;;5096281;28;20032;-85
2021/04/18 08:37:16;;;;;;;18.55;12.45;;;12.40;81.30;;;;;;5096109;28;20077;-85
2021/04/18 08:39:42;;;;;;;17.73;12.63;;;12.50;80.70;;;;;;5077140;28;20062;-87
2021/04/18 08:42:15;;;;;;;16.40;11.95;;;12.60;80.20;;;;;;5076304;28;20090;-89
2021/04/18 08:44:43;;;;;;;15.98;12.20;;;12.80;81.10;;;;;;5076237;28;20032;-89
2021/04/18 08:47:11;;;;;;;17.23;11.35;;;12.90;80.20;;;;;;5076055;28;20039;-88
2021/04/18 08:49:38;;;;;;;15.23;11.52;;;13.10;79.60;;;;;;5076185;28;20048;-92
2021/04/18 08:52:08;;;;;;;19.02;12.90;;;13.30;79.00;;;;;;5093782;28;20032;-89
2021/04/18 08:54:37;;;;;;;18.33;12.95;;;13.30;79.30;;;;;;5094113;28;20043;-91
2021/04/18 08:57:07;;;;;;;17.33;12.18;;;13.30;79.00;;;;;;5098387;28;20098;-89
2021/04/18 08:59:34;;;;;;;18.30;12.65;;;13.40;79.60;;;;;;5096273;28;20465;-88
2021/04/18 09:02:04;;;;;;;17.38;12.43;;;13.60;77.90;;;;;;5079356;28;20062;-91
2021/04/18 09:04:36;;;;;;;17.33;13.05;;;13.60;78.90;;;;;;5092948;28;20519;-90
2021/04/18 09:07:03;;;;;;;14.73;11.35;;;13.80;78.30;;;;;;5092791;28;20062;-88
2021/04/18 09:09:29;;;;;;;13.45;10.07;;;13.90;76.60;;;;;;5096615;28;20032;-89
2021/04/18 09:11:56;;;;;;;18.90;11.60;;;14.00;77.00;;;;;;5099692;28;20028;-89
2021/04/18 09:14:31;;;;;;;15.20;10.75;;;14.10;76.50;;;;;;5092562;28;20042;-88
2021/04/18 09:17:08;;;;;;;10.68;8.45;;;14.30;74.80;;;;;;5079998;28;20101;-88
2021/04/18 09:19:34;;;;;;;10.63;8.27;;;14.50;72.30;;;;;;5079867;28;20043;-89
2021/04/18 09:22:27;;;;;;;14.40;9.77;;;14.50;72.40;;;;;;5097924;28;20024;-89
2021/04/18 09:24:52;;;;;;;14.43;10.63;;;14.50;74.10;;;;;;5079744;28;20127;-89
2021/04/18 09:27:26;;;;;;;12.13;9.88;;;14.60;74.00;;;;;;5079801;28;20068;-85
2021/04/18 09:30:07;;;;;;;13.10;10.00;;;14.60;73.20;;;;;;5079550;28;20044;-83
2021/04/18 09:32:35;;;;;;;16.55;9.88;;;14.60;71.20;;;;;;5079105;28;20058;-82
2021/04/18 09:35:02;;;;;;;12.43;9.90;;;14.40;71.70;;;;;;5079126;28;20054;-82
2021/04/18 09:37:34;;;;;;;11.82;9.27;;;14.20;72.90;;;;;;5094253;28;20078;-83
2021/04/18 09:40:09;;;;;;;16.27;10.82;;;14.20;74.00;;;;;;5057199;28;20771;-83
2021/04/18 09:42:38;;;;;;;12.02;9.65;;;14.10;74.70;;;;;;5088414;28;20085;-84
2021/04/18 09:45:16;;;;;;;12.15;10.10;;;14.20;74.70;;;;;;5077435;28;20047;-83
2021/04/18 09:47:45;;;;;;;11.77;9.30;;;14.30;74.00;;;;;;5080515;28;20047;-83
2021/04/18 09:50:33;;;;;;;11.07;8.50;;;14.40;73.00;;;;;;5113028;28;20429;-86
2021/04/18 09:53:12;;;;;;;12.20;7.95;;;14.50;72.00;;;;;;5097541;28;20036;-83
2021/04/18 09:56:00;;;;;;;8.63;7.22;;;14.50;71.30;;;;;;5097236;28;20060;-83
2021/04/18 09:58:40;;;;;;;10.32;8.20;;;14.60;72.10;;;;;;5087154;28;20071;-83
2021/04/18 10:01:21;;;;;;;11.82;8.40;;;14.70;70.70;;;;;;5077654;28;20089;-83
2021/04/18 10:03:47;;;;;;;14.38;8.70;;;14.60;72.30;;;;;;5077214;28;20046;-84
2021/04/18 10:06:12;;;;;;;9.82;7.60;;;14.70;71.30;;;;;;5081131;28;20431;-81
2021/04/18 10:08:40;;;;;;;10.95;8.77;;;14.70;70.90;;;;;;5097005;28;20058;-79
2021/04/18 10:11:05;;;;;;;9.23;7.68;;;14.60;70.00;;;;;;5103357;28;20036;-79
2021/04/18 10:13:56;;;;;;;10.00;7.70;;;14.60;69.60;;;;;;5094650;28;20036;-79
2021/04/18 10:16:34;;;;;;;9.50;7.57;;;14.40;70.50;;;;;;5094804;28;20062;-81
2021/04/18 10:19:16;;;;;;;9.70;8.32;;;14.50;70.00;;;;;;5094906;28;20097;-85
2021/04/18 10:22:00;;;;;;;12.07;8.48;;;14.50;69.90;;;;;;5094932;28;20028;-77
2021/04/18 10:24:48;;;;;;;22.95;11.93;;;14.50;70.30;;;;;;5089368;28;20043;-77
2021/04/18 10:27:16;;;;;;;13.30;9.68;;;14.50;69.20;;;;;;5094998;28;20044;-81
2021/04/18 10:29:43;;;;;;;14.93;10.40;;;14.60;70.10;;;;;;5095893;28;20043;-81
2021/04/18 10:32:09;;;;;;;14.68;10.23;;;14.80;68.00;;;;;;5095294;28;20168;-77
2021/04/18 10:34:35;;;;;;;12.50;8.70;;;14.90;67.00;;;;;;5095342;28;20036;-86
2021/04/18 10:37:01;;;;;;;9.40;7.13;;;15.00;65.10;;;;;;5053882;28;937738;-88
2021/04/18 10:39:27;;;;;;;9.18;6.95;;;15.00;66.30;;;;;;5095131;28;20066;-75
2021/04/18 10:41:53;;;;;;;9.80;7.57;;;15.00;64.60;;;;;;5095895;28;20087;-75
2021/04/18 10:44:19;;;;;;;10.43;7.93;;;15.10;64.00;;;;;;5095962;28;20084;-74
2021/04/18 10:47:06;;;;;;;12.93;9.60;;;15.00;64.20;;;;;;5095712;28;20085;-81
2021/04/18 10:49:32;;;;;;;19.23;13.35;;;15.00;65.40;;;;;;5095690;28;20504;-85
2021/04/18 10:51:59;;;;;;;11.32;8.45;;;14.90;65.70;;;;;;5095750;28;20024;-84
2021/04/18 10:54:25;;;;;;;10.10;7.88;;;14.80;67.00;;;;;;5094791;28;20027;-84
2021/04/18 10:56:52;;;;;;;11.43;8.68;;;14.80;66.60;;;;;;5096088;28;20031;-85
2021/04/18 10:59:19;;;;;;;9.95;7.53;;;14.90;67.00;;;;;;5094487;28;20036;-84
2021/04/18 11:01:45;;;;;;;9.07;7.75;;;14.90;67.50;;;;;;5094349;28;20510;-85
2021/04/18 11:04:11;;;;;;;8.68;7.22;;;15.00;66.50;;;;;;5094389;28;20043;-83
2021/04/18 11:06:37;;;;;;;10.82;8.07;;;15.00;66.20;;;;;;5094086;28;20043;-83
2021/04/18 11:09:04;;;;;;;10.55;7.85;;;15.00;65.60;;;;;;5094343;28;20036;-83
2021/04/18 11:11:31;;;;;;;8.98;6.93;;;15.00;65.20;;;;;;5093995;28;20064;-81
2021/04/18 11:13:56;;;;;;;8.25;6.10;;;15.10;65.90;;;;;;5095424;28;20024;-82
2021/04/18 11:16:22;;;;;;;7.82;6.20;;;15.40;66.80;;;;;;5095750;28;20028;-82
2021/04/18 11:18:49;;;;;;;7.15;5.65;;;15.60;65.70;;;;;;5093921;28;20032;-78
2021/04/18 11:21:15;;;;;;;6.68;5.32;;;15.90;62.50;;;;;;5095146;28;20020;-79
2021/04/18 11:23:41;;;;;;;6.22;5.50;;;16.10;61.10;;;;;;5095143;28;20432;-78
2021/04/18 11:26:07;;;;;;;7.63;5.57;;;16.20;61.90;;;;;;5095214;28;20035;-79
2021/04/18 11:28:32;;;;;;;9.25;7.45;;;16.20;60.30;;;;;;5095141;28;20123;-78
2021/04/18 11:30:59;;;;;;;7.80;6.57;;;16.30;61.00;;;;;;5095138;28;20097;-78
2021/04/18 11:33:25;;;;;;;7.93;6.72;;;16.30;62.00;;;;;;5093961;28;20032;-76
2021/04/18 11:35:51;;;;;;;9.15;7.07;;;16.40;61.70;;;;;;5096026;28;20036;-78
2021/04/18 11:38:16;;;;;;;9.23;7.18;;;16.50;61.40;;;;;;5097063;28;20495;-77
2021/04/18 11:40:42;;;;;;;7.60;6.57;;;16.70;61.20;;;;;;5096863;28;20032;-77
2021/04/18 11:43:08;;;;;;;8.25;5.85;;;16.70;60.50;;;;;;5115076;28;20032;-76
2021/04/18 11:45:34;;;;;;;7.60;6.00;;;16.60;59.50;;;;;;5114986;28;20035;-76
2021/04/18 11:47:59;;;;;;;6.93;6.22;;;16.40;59.90;;;;;;5114959;28;20116;-76
2021/04/18 11:50:25;;;;;;;8.10;6.80;;;16.10;62.50;;;;;;5114872;28;20093;-76
2021/04/18 11:52:52;;;;;;;42.50;16.23;;;16.00;63.70;;;;;;5114770;28;20046;-75
2021/04/18 11:55:20;;;;;;;80.80;27.77;;;15.90;64.10;;;;;;5096830;28;20481;-76
2021/04/18 11:57:46;;;;;;;20.13;9.60;;;15.80;63.40;;;;;;5114670;28;20027;-76
2021/04/18 12:00:12;;;;;;;29.52;16.52;;;15.70;62.60;;;;;;5114701;28;20027;-76
2021/04/18 12:02:38;;;;;;;22.58;13.82;;;15.60;62.10;;;;;;5096514;28;20061;-75
2021/04/18 12:05:06;;;;;;;29.50;19.20;;;15.40;62.40;;;;;;5114804;28;20028;-75
2021/04/18 12:07:32;;;;;;;16.70;11.65;;;15.30;64.20;;;;;;5114649;28;20023;-75
2021/04/18 12:09:57;;;;;;;24.45;15.98;;;15.10;65.40;;;;;;5096137;28;20546;-75
2021/04/18 12:12:23;;;;;;;13.65;9.32;;;15.10;64.20;;;;;;5096082;28;20036;-75
2021/04/18 12:14:52;;;;;;;29.52;18.40;;;14.90;65.70;;;;;;5114990;28;20059;-75
2021/04/18 12:17:18;;;;;;;25.58;14.55;;;14.80;65.00;;;;;;5096445;28;20032;-75
2021/04/18 12:19:44;;;;;;;10.35;8.02;;;14.70;65.50;;;;;;5114487;28;20036;-75
2021/04/18 12:22:10;;;;;;;25.50;15.82;;;14.60;66.70;;;;;;5096432;28;20042;-75
2021/04/18 12:24:35;;;;;;;9.23;7.13;;;14.60;65.30;;;;;;5114573;28;20045;-75
2021/04/18 12:27:01;;;;;;;7.43;5.32;;;14.50;64.90;;;;;;5123877;27;20494;-88
2021/04/18 12:29:27;;;;;;;6.90;5.05;;;14.40;65.90;;;;;;5114963;28;20036;-90
2021/04/18 12:31:53;;;;;;;5.28;4.57;;;14.30;66.10;;;;;;5096962;28;20130;-90
2021/04/18 12:34:19;;;;;;;5.40;4.75;;;14.30;66.30;;;;;;5115278;28;20055;-90
2021/04/18 12:36:45;;;;;;;7.80;5.75;;;14.20;67.20;;;;;;5093474;28;20052;-90
2021/04/18 12:39:13;;;;;;;9.00;7.40;;;14.10;68.70;;;;;;5096866;28;20028;-86